sensor_id;sensor_type;location;lat;lon;timestamp;temperature;humidity
21031;DHT22;61072;47.808;7.636;2023-04-01T00:02:23;10.00;99.90
21031;DHT22;61072;47.808;7.636;2023-04-01T00:04:50;10.10;99.90
21031;DHT22;61072;47.808;7.636;2023-04-01T00:07:17;10.10;99.90
21031;DHT22;61072;47.808;7.636;2023-04-01T00:09:43;10.00;99.90
21031;DHT22;61072;47.808;7.636;2023-04-01T00:12:11;10.00;99.90
21031;DHT22;61072;47.808;7.636;2023-04-01T00:14:37;10.10;99.90
21031;DHT22;61072;47.808;7.636;2023-04-01T00:17:06;10.10;99.90
21031;DHT22;61072;47.808;7.636;2023-04-01T00:19:33;10.10;99.90
21031;DHT22;61072;47.808;7.636;2023-04-01T00:21:59;9.90;99.90
21031;DHT22;61072;47.808;7.636;2023-04-01T00:24:26;9.90;99.90
21031;DHT22;61072;47.808;7.636;2023-04-01T00:26:53;9.90;99.90
21031;DHT22;61072;47.808;7.636;2023-04-01T00:29:19;9.90;99.90
21031;DHT22;61072;47.808;7.636;2023-04-01T00:31:46;9.90;99.90
21031;DHT22;61072;47.808;7.636;2023-04-01T00:34:13;9.90;99.90
21031;DHT22;61072;47.808;7.636;2023-04-01T00:36:40;9.90;99.90
21031;DHT22;61072;47.808;7.636;2023-04-01T00:39:07;9.90;99.90
21031;DHT22;61072;47.808;7.636;2023-04-01T00:41:33;9.90;99.90
21031;DHT22;61072;47.808;7.636;2023-04-01T00:44:19;9.80;99.90
21031;DHT22;61072;47.808;7.636;2023-04-01T00:46:46;9.80;99.90
21031;DHT22;61072;47.808;7.636;2023-04-01T00:49:16;9.70;99.90
21031;DHT22;61072;47.808;7.636;2023-04-01T00:51:45;9.70;99.90
21031;DHT22;61072;47.808;7.636;2023-04-01T00:54:16;9.70;99.90
21031;DHT22;61072;47.808;7.636;2023-04-01T00:56:54;9.80;99.90
21031;DHT22;61072;47.808;7.636;2023-04-01T00:59:26;9.70;99.90
21031;DHT22;61072;47.808;7.636;2023-04-01T01:01:53;9.70;99.90
21031;DHT22;61072;47.808;7.636;2023-04-01T01:04:27;9.70;99.90
21031;DHT22;61072;47.808;7.636;2023-04-01T01:09:53;9.80;99.90
21031;DHT22;61072;47.808;7.636;2023-04-01T01:15:42;9.80;99.90
21031;DHT22;61072;47.808;7.636;2023-04-01T01:26:52;9.80;99.90
21031;DHT22;61072;47.808;7.636;2023-04-01T01:37:10;9.80;99.90
21031;DHT22;61072;47.808;7.636;2023-04-01T01:39:41;9.80;99.90
21031;DHT22;61072;47.808;7.636;2023-04-01T01:42:11;9.80;99.90
21031;DHT22;61072;47.808;7.636;2023-04-01T01:44:42;9.90;99.90
21031;DHT22;61072;47.808;7.636;2023-04-01T01:47:11;10.00;99.90
21031;DHT22;61072;47.808;7.636;2023-04-01T01:49:39;10.00;99.90
21031;DHT22;61072;47.808;7.636;2023-04-01T01:52:08;10.00;99.90
21031;DHT22;61072;47.808;7.636;2023-04-01T01:54:34;10.00;99.90
21031;DHT22;61072;47.808;7.636;2023-04-01T01:57:06;10.10;99.90
21031;DHT22;61072;47.808;7.636;2023-04-01T01:59:36;10.00;99.90
21031;DHT22;61072;47.808;7.636;2023-04-01T02:02:05;10.00;99.90
21031;DHT22;61072;47.808;7.636;2023-04-01T02:04:40;9.90;99.90
21031;DHT22;61072;47.808;7.636;2023-04-01T02:07:12;10.00;99.90
21031;DHT22;61072;47.808;7.636;2023-04-01T02:09:40;9.90;99.90
21031;DHT22;61072;47.808;7.636;2023-04-01T02:12:09;9.90;99.90
21031;DHT22;61072;47.808;7.636;2023-04-01T02:14:54;9.90;99.90
21031;DHT22;61072;47.808;7.636;2023-04-01T02:17:24;10.00;99.90
21031;DHT22;61072;47.808;7.636;2023-04-01T02:20:07;10.00;99.90
21031;DHT22;61072;47.808;7.636;2023-04-01T02:22:38;9.90;99.90
21031;DHT22;61072;47.808;7.636;2023-04-01T02:25:11;9.90;99.90
21031;DHT22;61072;47.808;7.636;2023-04-01T02:27:40;9.90;99.90
21031;DHT22;61072;47.808;7.636;2023-04-01T02:30:09;9.90;99.90
21031;DHT22;61072;47.808;7.636;2023-04-01T02:32:38;9.90;99.90
21031;DHT22;61072;47.808;7.636;2023-04-01T02:35:10;9.90;99.90
21031;DHT22;61072;47.808;7.636;2023-04-01T02:37:38;9.90;99.90
21031;DHT22;61072;47.808;7.636;2023-04-01T02:40:11;9.90;99.90
21031;DHT22;61072;47.808;7.636;2023-04-01T02:42:38;9.90;99.90
21031;DHT22;61072;47.808;7.636;2023-04-01T02:45:06;10.00;99.90
21031;DHT22;61072;47.808;7.636;2023-04-01T02:47:33;10.00;99.90
21031;DHT22;61072;47.808;7.636;2023-04-01T02:50:05;10.00;99.90
21031;DHT22;61072;47.808;7.636;2023-04-01T02:52:32;10.00;99.90
21031;DHT22;61072;47.808;7.636;2023-04-01T02:54:59;10.00;99.90
21031;DHT22;61072;47.808;7.636;2023-04-01T02:57:26;10.00;99.90
21031;DHT22;61072;47.808;7.636;2023-04-01T02:59:53;10.00;99.90
21031;DHT22;61072;47.808;7.636;2023-04-01T03:02:20;10.00;99.90
21031;DHT22;61072;47.808;7.636;2023-04-01T03:04:46;10.00;99.90
21031;DHT22;61072;47.808;7.636;2023-04-01T03:07:13;9.90;99.90
21031;DHT22;61072;47.808;7.636;2023-04-01T03:09:40;9.90;99.90
21031;DHT22;61072;47.808;7.636;2023-04-01T03:12:07;9.90;99.90
21031;DHT22;61072;47.808;7.636;2023-04-01T03:14:33;9.80;99.90
21031;DHT22;61072;47.808;7.636;2023-04-01T03:17:00;9.80;99.90
21031;DHT22;61072;47.808;7.636;2023-04-01T03:19:27;9.80;99.90
21031;DHT22;61072;47.808;7.636;2023-04-01T03:21:54;9.70;99.90
21031;DHT22;61072;47.808;7.636;2023-04-01T03:24:21;9.70;99.90
21031;DHT22;61072;47.808;7.636;2023-04-01T03:26:47;9.60;99.90
21031;DHT22;61072;47.808;7.636;2023-04-01T03:29:14;9.60;99.90
21031;DHT22;61072;47.808;7.636;2023-04-01T03:31:42;9.60;99.90
21031;DHT22;61072;47.808;7.636;2023-04-01T03:34:09;9.60;99.90
21031;DHT22;61072;47.808;7.636;2023-04-01T03:36:36;9.60;99.90
21031;DHT22;61072;47.808;7.636;2023-04-01T03:39:02;9.60;99.90
21031;DHT22;61072;47.808;7.636;2023-04-01T03:41:30;9.60;99.90
21031;DHT22;61072;47.808;7.636;2023-04-01T03:43:57;9.60;99.90
21031;DHT22;61072;47.808;7.636;2023-04-01T03:46:23;9.60;99.90
21031;DHT22;61072;47.808;7.636;2023-04-01T03:48:50;9.60;99.90
21031;DHT22;61072;47.808;7.636;2023-04-01T03:51:17;9.50;99.90
21031;DHT22;61072;47.808;7.636;2023-04-01T03:53:44;9.50;99.90
21031;DHT22;61072;47.808;7.636;2023-04-01T03:56:11;9.50;99.90
21031;DHT22;61072;47.808;7.636;2023-04-01T03:58:38;9.50;99.90
21031;DHT22;61072;47.808;7.636;2023-04-01T04:01:19;9.40;99.90
21031;DHT22;61072;47.808;7.636;2023-04-01T04:03:50;9.40;99.90
21031;DHT22;61072;47.808;7.636;2023-04-01T04:06:18;9.30;99.90
21031;DHT22;61072;47.808;7.636;2023-04-01T04:08:45;9.30;99.90
21031;DHT22;61072;47.808;7.636;2023-04-01T04:11:12;9.30;99.90
21031;DHT22;61072;47.808;7.636;2023-04-01T04:13:39;9.30;99.90
21031;DHT22;61072;47.808;7.636;2023-04-01T04:16:06;9.40;99.90
21031;DHT22;61072;47.808;7.636;2023-04-01T04:18:33;9.40;99.90
21031;DHT22;61072;47.808;7.636;2023-04-01T04:20:59;9.40;99.90
21031;DHT22;61072;47.808;7.636;2023-04-01T04:23:26;9.30;99.90
21031;DHT22;61072;47.808;7.636;2023-04-01T04:26:00;9.20;99.90
21031;DHT22;61072;47.808;7.636;2023-04-01T04:28:27;9.20;99.90
21031;DHT22;61072;47.808;7.636;2023-04-01T04:30:54;9.20;99.90
21031;DHT22;61072;47.808;7.636;2023-04-01T04:33:22;9.30;99.90
21031;DHT22;61072;47.808;7.636;2023-04-01T04:35:50;9.30;99.90
21031;DHT22;61072;47.808;7.636;2023-04-01T04:38:17;9.30;99.90
21031;DHT22;61072;47.808;7.636;2023-04-01T04:40:44;9.20;99.90
21031;DHT22;61072;47.808;7.636;2023-04-01T04:43:11;9.20;99.90
21031;DHT22;61072;47.808;7.636;2023-04-01T04:45:39;9.20;99.90
21031;DHT22;61072;47.808;7.636;2023-04-01T04:48:08;9.20;99.90
21031;DHT22;61072;47.808;7.636;2023-04-01T04:50:35;9.20;99.90
21031;DHT22;61072;47.808;7.636;2023-04-01T04:53:02;9.20;99.90
21031;DHT22;61072;47.808;7.636;2023-04-01T04:55:29;9.20;99.90
21031;DHT22;61072;47.808;7.636;2023-04-01T04:57:57;9.10;99.90
21031;DHT22;61072;47.808;7.636;2023-04-01T05:00:23;9.20;99.90
21031;DHT22;61072;47.808;7.636;2023-04-01T05:02:50;9.20;99.90
21031;DHT22;61072;47.808;7.636;2023-04-01T05:05:17;9.20;99.90
21031;DHT22;61072;47.808;7.636;2023-04-01T05:07:43;9.20;99.90
21031;DHT22;61072;47.808;7.636;2023-04-01T05:10:10;9.20;99.90
21031;DHT22;61072;47.808;7.636;2023-04-01T05:12:37;9.20;99.90
21031;DHT22;61072;47.808;7.636;2023-04-01T05:15:06;9.30;99.90
21031;DHT22;61072;47.808;7.636;2023-04-01T05:17:33;9.30;99.90
21031;DHT22;61072;47.808;7.636;2023-04-01T05:19:59;9.30;99.90
21031;DHT22;61072;47.808;7.636;2023-04-01T05:22:26;9.30;99.90
21031;DHT22;61072;47.808;7.636;2023-04-01T05:24:53;9.30;99.90
21031;DHT22;61072;47.808;7.636;2023-04-01T05:27:20;9.30;99.90
21031;DHT22;61072;47.808;7.636;2023-04-01T05:29:47;9.30;99.90
21031;DHT22;61072;47.808;7.636;2023-04-01T05:32:13;9.30;99.90
21031;DHT22;61072;47.808;7.636;2023-04-01T05:34:41;9.30;99.90
21031;DHT22;61072;47.808;7.636;2023-04-01T05:37:08;9.40;99.90
21031;DHT22;61072;47.808;7.636;2023-04-01T05:39:38;9.30;99.90
21031;DHT22;61072;47.808;7.636;2023-04-01T05:42:08;9.40;99.90
21031;DHT22;61072;47.808;7.636;2023-04-01T05:44:35;9.40;99.90
21031;DHT22;61072;47.808;7.636;2023-04-01T05:47:03;9.40;99.90
21031;DHT22;61072;47.808;7.636;2023-04-01T05:49:30;9.40;99.90
21031;DHT22;61072;47.808;7.636;2023-04-01T05:51:57;9.50;99.90
21031;DHT22;61072;47.808;7.636;2023-04-01T05:54:24;9.50;99.90
21031;DHT22;61072;47.808;7.636;2023-04-01T05:56:50;9.50;99.90
21031;DHT22;61072;47.808;7.636;2023-04-01T05:59:17;9.50;99.90
21031;DHT22;61072;47.808;7.636;2023-04-01T06:01:44;9.60;99.90
21031;DHT22;61072;47.808;7.636;2023-04-01T06:04:14;9.60;99.90
21031;DHT22;61072;47.808;7.636;2023-04-01T06:06:41;9.60;99.90
21031;DHT22;61072;47.808;7.636;2023-04-01T06:09:17;9.60;99.90
21031;DHT22;61072;47.808;7.636;2023-04-01T06:17:30;9.60;99.90
21031;DHT22;61072;47.808;7.636;2023-04-01T06:23:12;9.60;99.90
21031;DHT22;61072;47.808;7.636;2023-04-01T06:28:58;9.60;99.90
21031;DHT22;61072;47.808;7.636;2023-04-01T06:37:45;9.70;99.90
21031;DHT22;61072;47.808;7.636;2023-04-01T06:41:00;9.60;99.90
21031;DHT22;61072;47.808;7.636;2023-04-01T06:43:59;9.70;99.90
21031;DHT22;61072;47.808;7.636;2023-04-01T06:51:58;9.70;99.90
21031;DHT22;61072;47.808;7.636;2023-04-01T06:54:38;9.70;99.90
21031;DHT22;61072;47.808;7.636;2023-04-01T06:57:20;9.70;99.90
21031;DHT22;61072;47.808;7.636;2023-04-01T06:59:49;9.70;99.90
21031;DHT22;61072;47.808;7.636;2023-04-01T07:04:51;9.70;99.90
21031;DHT22;61072;47.808;7.636;2023-04-01T07:10:47;9.70;99.90
21031;DHT22;61072;47.808;7.636;2023-04-01T07:13:45;9.70;99.90
21031;DHT22;61072;47.808;7.636;2023-04-01T07:16:26;9.70;99.90
21031;DHT22;61072;47.808;7.636;2023-04-01T07:19:06;9.80;99.90
21031;DHT22;61072;47.808;7.636;2023-04-01T07:21:44;9.80;99.90
21031;DHT22;61072;47.808;7.636;2023-04-01T07:24:30;9.80;99.90
21031;DHT22;61072;47.808;7.636;2023-04-01T07:26:58;9.90;99.90
21031;DHT22;61072;47.808;7.636;2023-04-01T07:29:26;9.90;99.90
21031;DHT22;61072;47.808;7.636;2023-04-01T07:34:47;9.90;99.90
21031;DHT22;61072;47.808;7.636;2023-04-01T07:52:20;10.00;99.90
21031;DHT22;61072;47.808;7.636;2023-04-01T07:58:01;10.00;99.90
21031;DHT22;61072;47.808;7.636;2023-04-01T08:00:42;10.00;99.90
21031;DHT22;61072;47.808;7.636;2023-04-01T08:03:22;10.00;99.90
21031;DHT22;61072;47.808;7.636;2023-04-01T08:06:03;10.00;99.90
21031;DHT22;61072;47.808;7.636;2023-04-01T08:08:36;10.00;99.90
21031;DHT22;61072;47.808;7.636;2023-04-01T08:16:39;10.00;99.90
21031;DHT22;61072;47.808;7.636;2023-04-01T08:22:17;10.10;99.90
21031;DHT22;61072;47.808;7.636;2023-04-01T08:24:48;10.10;99.90
21031;DHT22;61072;47.808;7.636;2023-04-01T08:27:23;10.10;99.90
21031;DHT22;61072;47.808;7.636;2023-04-01T08:29:59;10.00;99.90
21031;DHT22;61072;47.808;7.636;2023-04-01T08:32:39;10.10;99.90
21031;DHT22;61072;47.808;7.636;2023-04-01T08:35:18;10.10;99.90
21031;DHT22;61072;47.808;7.636;2023-04-01T08:37:47;10.10;99.90
21031;DHT22;61072;47.808;7.636;2023-04-01T08:40:37;10.10;99.90
21031;DHT22;61072;47.808;7.636;2023-04-01T08:49:04;10.20;99.90
21031;DHT22;61072;47.808;7.636;2023-04-01T09:06:00;10.30;99.90
21031;DHT22;61072;47.808;7.636;2023-04-01T09:08:59;10.40;99.90
21031;DHT22;61072;47.808;7.636;2023-04-01T09:17:29;10.40;99.90
21031;DHT22;61072;47.808;7.636;2023-04-01T09:20:19;10.50;99.90
21031;DHT22;61072;47.808;7.636;2023-04-01T09:26:05;10.40;99.90
21031;DHT22;61072;47.808;7.636;2023-04-01T09:45:23;10.60;99.90
21031;DHT22;61072;47.808;7.636;2023-04-01T09:48:24;10.60;99.90
21031;DHT22;61072;47.808;7.636;2023-04-01T10:11:10;10.90;99.90
21031;DHT22;61072;47.808;7.636;2023-04-01T10:16:42;10.90;99.90
21031;DHT22;61072;47.808;7.636;2023-04-01T10:19:39;10.80;99.90
21031;DHT22;61072;47.808;7.636;2023-04-01T10:31:13;10.70;99.90
21031;DHT22;61072;47.808;7.636;2023-04-01T10:36:55;10.70;99.90
21031;DHT22;61072;47.808;7.636;2023-04-01T10:45:18;10.60;99.90
21031;DHT22;61072;47.808;7.636;2023-04-01T10:48:13;10.60;99.90
21031;DHT22;61072;47.808;7.636;2023-04-01T10:50:53;10.60;99.90
21031;DHT22;61072;47.808;7.636;2023-04-01T10:57:01;10.60;99.90
21031;DHT22;61072;47.808;7.636;2023-04-01T11:31:10;10.80;99.90
21031;DHT22;61072;47.808;7.636;2023-04-01T11:37:03;10.90;99.90
21031;DHT22;61072;47.808;7.636;2023-04-01T11:39:36;11.00;99.90
21031;DHT22;61072;47.808;7.636;2023-04-01T11:42:30;11.00;99.90
21031;DHT22;61072;47.808;7.636;2023-04-01T11:45:30;11.10;99.90
21031;DHT22;61072;47.808;7.636;2023-04-01T11:56:58;11.20;99.90
21031;DHT22;61072;47.808;7.636;2023-04-01T12:03:33;11.30;99.90
21031;DHT22;61072;47.808;7.636;2023-04-01T12:05:48;11.40;99.90
21031;DHT22;61072;47.808;7.636;2023-04-01T12:08:46;11.40;99.90
21031;DHT22;61072;47.808;7.636;2023-04-01T12:11:33;11.40;99.90
21031;DHT22;61072;47.808;7.636;2023-04-01T12:16:52;11.40;99.90
21031;DHT22;61072;47.808;7.636;2023-04-01T12:22:09;11.50;99.90
21031;DHT22;61072;47.808;7.636;2023-04-01T12:27:38;11.30;99.90
21031;DHT22;61072;47.808;7.636;2023-04-01T12:30:32;11.30;99.90
21031;DHT22;61072;47.808;7.636;2023-04-01T12:36:23;11.40;99.90
21031;DHT22;61072;47.808;7.636;2023-04-01T12:39:15;11.50;99.90
21031;DHT22;61072;47.808;7.636;2023-04-01T12:44:42;11.50;99.90
21031;DHT22;61072;47.808;7.636;2023-04-01T12:55:52;11.70;99.90
21031;DHT22;61072;47.808;7.636;2023-04-01T13:09:22;11.90;99.90
21031;DHT22;61072;47.808;7.636;2023-04-01T13:29:18;12.40;99.90
21031;DHT22;61072;47.808;7.636;2023-04-01T13:31:49;12.50;99.90
21031;DHT22;61072;47.808;7.636;2023-04-01T13:40:13;12.80;99.90
21031;DHT22;61072;47.808;7.636;2023-04-01T13:42:57;13.00;99.90
21031;DHT22;61072;47.808;7.636;2023-04-01T13:45:47;13.10;99.90
21031;DHT22;61072;47.808;7.636;2023-04-01T13:49:03;13.20;99.90
21031;DHT22;61072;47.808;7.636;2023-04-01T13:57:29;13.40;99.90
21031;DHT22;61072;47.808;7.636;2023-04-01T14:05:47;13.40;99.90
21031;DHT22;61072;47.808;7.636;2023-04-01T14:08:25;13.30;99.90
21031;DHT22;61072;47.808;7.636;2023-04-01T14:30:42;12.00;99.90
21031;DHT22;61072;47.808;7.636;2023-04-01T14:50:51;12.00;99.90
21031;DHT22;61072;47.808;7.636;2023-04-01T14:53:34;12.00;99.90
21031;DHT22;61072;47.808;7.636;2023-04-01T14:56:05;12.10;99.90
21031;DHT22;61072;47.808;7.636;2023-04-01T14:58:50;12.10;99.90
21031;DHT22;61072;47.808;7.636;2023-04-01T15:01:47;12.10;99.90
21031;DHT22;61072;47.808;7.636;2023-04-01T15:08:00;12.20;99.90
21031;DHT22;61072;47.808;7.636;2023-04-01T15:10:59;12.20;99.90
21031;DHT22;61072;47.808;7.636;2023-04-01T15:40:28;12.90;99.90
21031;DHT22;61072;47.808;7.636;2023-04-01T15:43:21;12.90;99.90
21031;DHT22;61072;47.808;7.636;2023-04-01T15:49:03;13.00;99.90
21031;DHT22;61072;47.808;7.636;2023-04-01T15:57:27;13.00;99.90
21031;DHT22;61072;47.808;7.636;2023-04-01T16:05:52;12.80;99.90
21031;DHT22;61072;47.808;7.636;2023-04-01T16:08:45;12.80;99.90
21031;DHT22;61072;47.808;7.636;2023-04-01T16:11:39;12.70;99.90
21031;DHT22;61072;47.808;7.636;2023-04-01T16:14:14;12.70;99.90
21031;DHT22;61072;47.808;7.636;2023-04-01T16:20:00;12.70;99.90
21031;DHT22;61072;47.808;7.636;2023-04-01T16:25:51;12.60;99.90
21031;DHT22;61072;47.808;7.636;2023-04-01T16:28:24;12.60;99.90
21031;DHT22;61072;47.808;7.636;2023-04-01T16:31:06;12.60;99.90
21031;DHT22;61072;47.808;7.636;2023-04-01T16:33:55;12.60;99.90
21031;DHT22;61072;47.808;7.636;2023-04-01T16:36:37;12.60;99.90
21031;DHT22;61072;47.808;7.636;2023-04-01T16:42:01;12.40;99.90
21031;DHT22;61072;47.808;7.636;2023-04-01T16:47:45;12.40;99.90
21031;DHT22;61072;47.808;7.636;2023-04-01T16:50:43;12.40;99.90
21031;DHT22;61072;47.808;7.636;2023-04-01T16:55:47;12.40;99.90
21031;DHT22;61072;47.808;7.636;2023-04-01T16:58:25;12.30;99.90
21031;DHT22;61072;47.808;7.636;2023-04-01T17:01:07;12.30;99.90
21031;DHT22;61072;47.808;7.636;2023-04-01T17:03:46;12.20;99.90
21031;DHT22;61072;47.808;7.636;2023-04-01T17:06:33;12.20;99.90
21031;DHT22;61072;47.808;7.636;2023-04-01T17:09:34;12.10;99.90
21031;DHT22;61072;47.808;7.636;2023-04-01T17:14:49;12.10;99.90
21031;DHT22;61072;47.808;7.636;2023-04-01T17:22:58;12.10;99.90
21031;DHT22;61072;47.808;7.636;2023-04-01T17:30:49;12.00;99.90
21031;DHT22;61072;47.808;7.636;2023-04-01T17:33:30;12.00;99.90
21031;DHT22;61072;47.808;7.636;2023-04-01T17:38:56;11.90;99.90
21031;DHT22;61072;47.808;7.636;2023-04-01T17:53:02;11.70;99.90
21031;DHT22;61072;47.808;7.636;2023-04-01T17:55:39;11.60;99.90
21031;DHT22;61072;47.808;7.636;2023-04-01T18:01:12;11.50;99.90
21031;DHT22;61072;47.808;7.636;2023-04-01T18:04:08;11.40;99.90
21031;DHT22;61072;47.808;7.636;2023-04-01T18:06:59;11.40;99.90
21031;DHT22;61072;47.808;7.636;2023-04-01T18:10:04;11.40;99.90
21031;DHT22;61072;47.808;7.636;2023-04-01T18:12:51;11.30;99.90
21031;DHT22;61072;47.808;7.636;2023-04-01T18:15:40;11.30;99.90
21031;DHT22;61072;47.808;7.636;2023-04-01T18:20:54;11.30;99.90
21031;DHT22;61072;47.808;7.636;2023-04-01T18:23:45;11.30;99.90
21031;DHT22;61072;47.808;7.636;2023-04-01T18:26:31;11.20;99.90
21031;DHT22;61072;47.808;7.636;2023-04-01T18:31:49;11.20;99.90
21031;DHT22;61072;47.808;7.636;2023-04-01T18:34:53;11.10;99.90
21031;DHT22;61072;47.808;7.636;2023-04-01T18:37:30;11.10;99.90
21031;DHT22;61072;47.808;7.636;2023-04-01T18:40:10;11.00;99.90
21031;DHT22;61072;47.808;7.636;2023-04-01T18:43:12;10.90;99.90
21031;DHT22;61072;47.808;7.636;2023-04-01T18:45:57;10.90;99.90
21031;DHT22;61072;47.808;7.636;2023-04-01T18:51:45;10.70;99.90
21031;DHT22;61072;47.808;7.636;2023-04-01T18:54:21;10.70;99.90
21031;DHT22;61072;47.808;7.636;2023-04-01T18:56:49;10.60;99.90
21031;DHT22;61072;47.808;7.636;2023-04-01T18:59:21;10.60;99.90
21031;DHT22;61072;47.808;7.636;2023-04-01T19:10:23;10.20;99.90
21031;DHT22;61072;47.808;7.636;2023-04-01T19:15:44;10.10;99.90
21031;DHT22;61072;47.808;7.636;2023-04-01T19:18:32;10.10;99.90
21031;DHT22;61072;47.808;7.636;2023-04-01T19:21:19;10.10;99.90
21031;DHT22;61072;47.808;7.636;2023-04-01T19:33:05;9.80;99.90
21031;DHT22;61072;47.808;7.636;2023-04-01T19:35:45;9.80;99.90
21031;DHT22;61072;47.808;7.636;2023-04-01T19:41:32;9.70;99.90
21031;DHT22;61072;47.808;7.636;2023-04-01T19:44:29;9.70;99.90
21031;DHT22;61072;47.808;7.636;2023-04-01T19:49:56;9.60;99.90
21031;DHT22;61072;47.808;7.636;2023-04-01T19:52:33;9.60;99.90
21031;DHT22;61072;47.808;7.636;2023-04-01T20:05:55;9.50;99.90
21031;DHT22;61072;47.808;7.636;2023-04-01T20:08:37;9.50;99.90
21031;DHT22;61072;47.808;7.636;2023-04-01T20:11:21;9.40;99.90
21031;DHT22;61072;47.808;7.636;2023-04-01T20:15:07;9.50;99.90
21031;DHT22;61072;47.808;7.636;2023-04-01T20:25:21;9.60;99.90
21031;DHT22;61072;47.808;7.636;2023-04-01T20:31:19;9.60;99.90
21031;DHT22;61072;47.808;7.636;2023-04-01T20:48:11;9.40;99.90
21031;DHT22;61072;47.808;7.636;2023-04-01T20:50:58;9.40;99.90
21031;DHT22;61072;47.808;7.636;2023-04-01T20:53:36;9.40;99.90
21031;DHT22;61072;47.808;7.636;2023-04-01T20:59:01;9.50;99.90
21031;DHT22;61072;47.808;7.636;2023-04-01T21:12:48;9.60;99.90
21031;DHT22;61072;47.808;7.636;2023-04-01T21:15:50;9.70;99.90
21031;DHT22;61072;47.808;7.636;2023-04-01T21:21:40;9.70;99.90
21031;DHT22;61072;47.808;7.636;2023-04-01T21:26:52;9.60;99.90
21031;DHT22;61072;47.808;7.636;2023-04-01T21:29:42;9.60;99.90
21031;DHT22;61072;47.808;7.636;2023-04-01T21:42:54;9.30;99.90
21031;DHT22;61072;47.808;7.636;2023-04-01T22:05:11;9.20;99.90
21031;DHT22;61072;47.808;7.636;2023-04-01T22:07:55;9.10;99.90
21031;DHT22;61072;47.808;7.636;2023-04-01T22:10:38;9.10;99.90
21031;DHT22;61072;47.808;7.636;2023-04-01T22:13:18;9.10;99.90
21031;DHT22;61072;47.808;7.636;2023-04-01T22:16:00;9.00;99.90
21031;DHT22;61072;47.808;7.636;2023-04-01T22:19:17;9.00;99.90
21031;DHT22;61072;47.808;7.636;2023-04-01T22:24:26;9.00;99.90
21031;DHT22;61072;47.808;7.636;2023-04-01T22:27:05;9.00;99.90
21031;DHT22;61072;47.808;7.636;2023-04-01T22:32:40;8.90;99.90
21031;DHT22;61072;47.808;7.636;2023-04-01T22:41:09;8.90;99.90
21031;DHT22;61072;47.808;7.636;2023-04-01T22:43:43;8.90;99.90
21031;DHT22;61072;47.808;7.636;2023-04-01T22:51:18;8.90;99.90
21031;DHT22;61072;47.808;7.636;2023-04-01T22:54:19;8.90;99.90
21031;DHT22;61072;47.808;7.636;2023-04-01T22:57:12;9.00;99.90
21031;DHT22;61072;47.808;7.636;2023-04-01T22:59:58;9.10;99.90
21031;DHT22;61072;47.808;7.636;2023-04-01T23:02:28;9.10;99.90
21031;DHT22;61072;47.808;7.636;2023-04-01T23:04:59;9.20;99.90
21031;DHT22;61072;47.808;7.636;2023-04-01T23:10:30;9.20;99.90
21031;DHT22;61072;47.808;7.636;2023-04-01T23:13:13;9.20;99.90
21031;DHT22;61072;47.808;7.636;2023-04-01T23:15:43;9.30;99.90
21031;DHT22;61072;47.808;7.636;2023-04-01T23:21:20;9.30;99.90
21031;DHT22;61072;47.808;7.636;2023-04-01T23:23:58;9.30;99.90
21031;DHT22;61072;47.808;7.636;2023-04-01T23:26:47;9.30;99.90
21031;DHT22;61072;47.808;7.636;2023-04-01T23:29:17;9.30;99.90
21031;DHT22;61072;47.808;7.636;2023-04-01T23:31:47;9.30;99.90
21031;DHT22;61072;47.808;7.636;2023-04-01T23:36:46;9.30;99.90
21031;DHT22;61072;47.808;7.636;2023-04-01T23:39:34;9.30;99.90
21031;DHT22;61072;47.808;7.636;2023-04-01T23:44:31;9.40;99.90
21031;DHT22;61072;47.808;7.636;2023-04-01T23:46:59;9.40;99.90
21031;DHT22;61072;47.808;7.636;2023-04-01T23:49:37;9.40;99.90
21031;DHT22;61072;47.808;7.636;2023-04-01T23:54:49;9.40;99.90
21031;DHT22;61072;47.808;7.636;2023-04-01T23:57:22;9.40;99.90
